createdAt,value
2018-04-27T00:01:31.389Z,7.10
2018-04-27T00:03:59.388Z,5.80
2018-04-27T00:06:27.332Z,6.20
2018-04-27T00:08:55.254Z,5.70
2018-04-27T00:11:23.258Z,7.23
2018-04-27T00:13:52.020Z,6.17
2018-04-27T00:16:19.951Z,6.97
2018-04-27T00:18:47.875Z,6.40
2018-04-27T00:21:16.606Z,6.30
2018-04-27T00:23:44.523Z,7.20
2018-04-27T00:26:13.327Z,6.40
2018-04-27T00:28:41.251Z,6.43
2018-04-27T00:31:09.192Z,6.67
2018-04-27T00:33:37.116Z,7.47
2018-04-27T00:36:05.857Z,8.43
2018-04-27T00:38:33.789Z,8.07
2018-04-27T00:41:01.685Z,8.70
2018-04-27T00:43:29.712Z,8.80
2018-04-27T00:45:58.503Z,9.33
2018-04-27T00:48:27.207Z,13.00
2018-04-27T00:50:55.144Z,13.40
2018-04-27T00:53:23.900Z,14.07
2018-04-27T00:55:53.909Z,14.83
2018-04-27T00:58:21.836Z,15.37
2018-04-27T01:00:50.551Z,16.10
2018-04-27T01:03:18.467Z,15.97
2018-04-27T01:05:46.495Z,14.57
2018-04-27T01:08:14.448Z,17.03
2018-04-27T01:10:42.388Z,15.27
2018-04-27T01:13:11.167Z,15.47
2018-04-27T01:15:54.012Z,17.80
2018-04-27T01:18:30.282Z,16.37
2018-04-27T01:21:07.249Z,16.90
2018-04-27T01:23:35.196Z,15.87
2018-04-27T01:26:03.897Z,15.93
2018-04-27T01:28:32.609Z,16.37
2018-04-27T01:31:00.544Z,18.90
2018-04-27T01:33:29.336Z,18.60
2018-04-27T01:35:58.025Z,20.60
2018-04-27T01:38:26.762Z,19.00
2018-04-27T01:40:54.680Z,18.10
2018-04-27T01:43:23.418Z,19.33
2018-04-27T01:45:51.391Z,19.83
2018-04-27T01:48:19.383Z,21.23
2018-04-27T01:50:47.315Z,22.30
2018-04-27T01:53:15.336Z,21.17
2018-04-27T01:55:44.103Z,23.20
2018-04-27T01:58:12.000Z,23.40
2018-04-27T02:00:40.675Z,23.00
2018-04-27T02:03:09.382Z,23.27
2018-04-27T02:05:37.329Z,21.67
2018-04-27T02:08:06.098Z,20.83
2018-04-27T02:10:34.119Z,22.67
2018-04-27T02:13:02.172Z,20.90
2018-04-27T02:15:30.172Z,21.30
2018-04-27T02:17:58.161Z,21.43
2018-04-27T02:20:26.103Z,21.93
2018-04-27T02:22:54.186Z,21.37
2018-04-27T02:25:22.204Z,27.53
2018-04-27T02:27:50.975Z,28.30
2018-04-27T02:30:18.989Z,26.40
2018-04-27T02:32:46.944Z,26.13
2018-04-27T02:35:15.751Z,24.07
2018-04-27T02:37:43.819Z,25.17
2018-04-27T02:40:11.734Z,23.73
2018-04-27T02:42:39.697Z,22.00
2018-04-27T02:45:07.676Z,22.63
2018-04-27T02:47:35.667Z,22.97
2018-04-27T02:50:04.466Z,22.70
2018-04-27T02:52:33.153Z,22.73
2018-04-27T02:55:01.875Z,20.33
2018-04-27T02:57:29.884Z,18.33
2018-04-27T02:59:57.822Z,16.67
2018-04-27T03:02:25.795Z,18.23
2018-04-27T03:04:53.821Z,14.37
2018-04-27T03:07:21.747Z,12.93
2018-04-27T03:09:49.760Z,14.27
2018-04-27T03:12:17.661Z,9.67
2018-04-27T03:14:45.606Z,7.90
2018-04-27T03:17:13.570Z,7.30
2018-04-27T03:19:41.504Z,7.40
2018-04-27T03:22:09.459Z,7.10
2018-04-27T03:24:37.391Z,6.70
2018-04-27T03:27:05.305Z,6.40
2018-04-27T03:29:33.248Z,6.50
2018-04-27T03:32:01.268Z,5.50
2018-04-27T03:34:29.953Z,6.70
2018-04-27T03:36:58.664Z,5.97
2018-04-27T03:39:26.600Z,5.93
2018-04-27T03:41:55.359Z,5.83
2018-04-27T03:44:23.332Z,5.60
2018-04-27T03:46:51.261Z,6.50
2018-04-27T03:49:19.177Z,5.33
2018-04-27T03:51:47.196Z,5.57
2018-04-27T03:54:15.109Z,6.47
2018-04-27T03:56:43.023Z,5.40
2018-04-27T03:59:10.940Z,6.57
2018-04-27T04:01:50.814Z,5.50
2018-04-27T04:04:46.236Z,6.23
2018-04-27T04:07:14.953Z,5.13
2018-04-27T04:09:42.898Z,5.40
2018-04-27T04:12:10.932Z,6.50
2018-04-27T04:14:38.919Z,5.87
2018-04-27T04:17:07.652Z,6.73
2018-04-27T04:19:35.604Z,4.77
2018-04-27T04:22:03.574Z,5.50
2018-04-27T04:24:31.592Z,8.13
2018-04-27T04:26:59.535Z,5.47
2018-04-27T04:29:27.544Z,5.63
2018-04-27T04:31:56.298Z,4.50
2018-04-27T04:34:24.281Z,5.90
2018-04-27T04:36:52.292Z,5.50
2018-04-27T04:39:20.222Z,4.93
2018-04-27T04:41:48.360Z,5.03
2018-04-27T04:44:16.401Z,6.07
2018-04-27T04:46:45.185Z,5.80
2018-04-27T04:49:13.904Z,5.20
2018-04-27T04:51:41.908Z,4.80
2018-04-27T04:54:09.805Z,7.23
2018-04-27T04:56:37.788Z,5.00
2018-04-27T04:59:05.733Z,5.93
2018-04-27T05:01:34.992Z,5.73
2018-04-27T05:04:03.092Z,7.10
2018-04-27T05:06:31.120Z,5.60
2018-04-27T05:08:59.132Z,5.67
2018-04-27T05:11:27.101Z,6.60
2018-04-27T05:13:55.108Z,6.37
2018-04-27T05:16:23.199Z,7.20
2018-04-27T05:18:51.316Z,4.87
2018-04-27T05:21:19.337Z,4.13
2018-04-27T05:23:47.357Z,4.63
2018-04-27T05:26:15.408Z,5.43
2018-04-27T05:28:44.140Z,5.33
2018-04-27T05:31:26.655Z,5.17
2018-04-27T05:33:54.682Z,5.83
2018-04-27T05:36:22.740Z,4.83
2018-04-27T05:38:50.735Z,5.60
2018-04-27T05:41:18.788Z,5.90
2018-04-27T05:43:46.780Z,5.50
2018-04-27T05:46:14.956Z,6.00
2018-04-27T05:48:43.775Z,5.60
2018-04-27T05:51:11.866Z,4.80
2018-04-27T05:53:39.857Z,5.00
2018-04-27T05:56:07.954Z,4.80
2018-04-27T05:58:35.896Z,5.70
2018-04-27T06:01:03.889Z,4.20
2018-04-27T06:03:43.689Z,4.17
2018-04-27T06:06:11.619Z,4.57
2018-04-27T06:08:40.324Z,4.33
2018-04-27T06:11:08.281Z,4.73
2018-04-27T06:13:36.986Z,5.07
2018-04-27T06:16:04.988Z,5.20
2018-04-27T06:18:33.000Z,5.47
2018-04-27T06:21:01.770Z,3.97
2018-04-27T06:23:29.790Z,4.93
2018-04-27T06:25:57.812Z,4.70
2018-04-27T06:28:25.864Z,4.37
2018-04-27T06:30:53.937Z,4.50
2018-04-27T06:33:21.911Z,4.47
2018-04-27T06:35:49.916Z,5.07
2018-04-27T06:38:18.609Z,4.23
2018-04-27T06:40:46.660Z,4.37
2018-04-27T06:43:15.471Z,3.93
2018-04-27T06:45:43.494Z,5.23
2018-04-27T06:48:11.551Z,6.10
2018-04-27T06:50:39.553Z,4.77
2018-04-27T06:53:07.550Z,4.90
2018-04-27T06:55:35.524Z,4.70
2018-04-27T06:58:03.515Z,4.50
2018-04-27T07:00:31.467Z,4.20
2018-04-27T07:02:59.493Z,3.90
2018-04-27T07:05:27.533Z,6.30
2018-04-27T07:07:55.576Z,5.33
2018-04-27T07:10:23.620Z,4.27
2018-04-27T07:12:52.405Z,5.80
2018-04-27T07:15:21.224Z,5.43
2018-04-27T07:17:49.120Z,4.83
2018-04-27T07:20:17.052Z,4.37
2018-04-27T07:22:45.004Z,5.63
2018-04-27T07:25:13.790Z,4.20
2018-04-27T07:27:42.579Z,5.40
2018-04-27T07:30:11.344Z,4.70
2018-04-27T07:32:39.311Z,5.37
2018-04-27T07:35:07.321Z,5.20
2018-04-27T07:37:35.412Z,4.83
2018-04-27T07:40:03.458Z,4.80
2018-04-27T07:42:32.241Z,4.70
2018-04-27T07:45:01.119Z,4.50
2018-04-27T07:47:29.944Z,4.43
2018-04-27T07:49:57.977Z,4.50
2018-04-27T07:52:26.808Z,4.60
2018-04-27T07:54:54.846Z,4.77
2018-04-27T07:57:23.737Z,4.87
2018-04-27T07:59:52.543Z,4.37
2018-04-27T08:02:20.678Z,5.57
2018-04-27T08:04:49.584Z,4.27
2018-04-27T08:07:18.468Z,4.00
2018-04-27T08:09:47.396Z,4.80
2018-04-27T08:12:15.431Z,4.53
2018-04-27T08:14:44.183Z,6.10
2018-04-27T08:17:12.277Z,3.90
2018-04-27T08:19:40.315Z,5.60
2018-04-27T08:22:08.315Z,5.43
2018-04-27T08:24:36.435Z,5.27
2018-04-27T08:27:04.632Z,5.83
2018-04-27T08:29:32.740Z,4.40
2018-04-27T08:32:00.785Z,4.70
2018-04-27T08:34:28.775Z,5.20
2018-04-27T08:36:56.779Z,4.87
2018-04-27T08:39:24.681Z,4.77
2018-04-27T08:41:53.417Z,4.60
2018-04-27T08:44:22.191Z,4.60
2018-04-27T08:46:50.193Z,4.50
2018-04-27T08:49:18.188Z,3.93
2018-04-27T08:51:46.258Z,3.97
2018-04-27T08:54:14.316Z,5.20
2018-04-27T08:56:42.508Z,5.87
2018-04-27T08:59:10.529Z,4.83
2018-04-27T09:01:39.245Z,5.27
2018-04-27T09:04:07.165Z,4.60
2018-04-27T09:06:35.125Z,4.97
2018-04-27T09:09:03.263Z,5.63
2018-04-27T09:11:31.219Z,4.47
2018-04-27T09:13:59.263Z,5.00
2018-04-27T09:16:27.968Z,3.73
2018-04-27T09:18:56.646Z,5.83
2018-04-27T09:21:25.411Z,5.27
2018-04-27T09:23:53.392Z,5.50
2018-04-27T09:26:22.193Z,4.40
2018-04-27T09:28:50.977Z,4.27
2018-04-27T09:31:19.725Z,4.40
2018-04-27T09:33:47.671Z,4.30
2018-04-27T09:36:15.733Z,4.77
2018-04-27T09:38:43.705Z,4.63
2018-04-27T09:41:11.721Z,5.37
2018-04-27T09:43:39.758Z,3.90
2018-04-27T09:46:07.771Z,4.77
2018-04-27T09:48:35.756Z,4.23
2018-04-27T09:51:04.579Z,6.60
2018-04-27T09:53:32.594Z,6.37
2018-04-27T09:56:00.564Z,4.87
2018-04-27T09:58:28.644Z,6.27
2018-04-27T10:00:57.326Z,4.70
2018-04-27T10:03:25.304Z,5.37
2018-04-27T10:05:54.063Z,4.77
2018-04-27T10:08:22.033Z,6.97
2018-04-27T10:10:50.092Z,5.20
2018-04-27T10:13:18.898Z,6.23
2018-04-27T10:15:46.901Z,6.70
2018-04-27T10:18:14.877Z,5.27
2018-04-27T10:20:42.865Z,5.90
2018-04-27T10:23:10.840Z,6.63
2018-04-27T10:25:38.806Z,6.97
2018-04-27T10:28:06.818Z,7.03
2018-04-27T10:30:34.856Z,6.47
2018-04-27T10:33:02.887Z,6.90
2018-04-27T10:35:31.627Z,5.77
2018-04-27T10:37:59.558Z,6.33
2018-04-27T10:40:27.515Z,6.50
2018-04-27T10:42:55.508Z,7.73
2018-04-27T10:45:23.517Z,6.27
2018-04-27T10:47:51.515Z,6.57
2018-04-27T10:50:20.433Z,5.53
2018-04-27T10:52:48.456Z,7.63
2018-04-27T10:55:16.460Z,6.80
2018-04-27T10:57:44.536Z,8.20
2018-04-27T11:00:12.524Z,6.93
2018-04-27T11:02:46.348Z,8.30
2018-04-27T11:05:14.369Z,8.33
2018-04-27T11:07:43.161Z,8.07
2018-04-27T11:10:11.193Z,8.20
2018-04-27T11:12:39.235Z,9.10
2018-04-27T11:15:08.056Z,8.30
2018-04-27T11:17:36.153Z,8.60
2018-04-27T11:20:04.940Z,10.27
2018-04-27T11:22:33.789Z,10.77
2018-04-27T11:25:01.794Z,9.90
2018-04-27T11:27:30.604Z,10.30
2018-04-27T11:29:58.521Z,8.80
2018-04-27T11:32:26.568Z,8.17
2018-04-27T11:34:54.500Z,9.60
2018-04-27T11:37:23.309Z,8.03
2018-04-27T11:39:51.253Z,7.67
2018-04-27T11:42:19.961Z,8.80
2018-04-27T11:44:47.959Z,9.03
2018-04-27T11:47:15.955Z,9.27
2018-04-27T11:49:43.940Z,9.10
2018-04-27T11:52:12.735Z,9.27
2018-04-27T11:54:41.583Z,10.47
2018-04-27T11:57:09.591Z,10.13
2018-04-27T11:59:38.429Z,10.70
2018-04-27T12:02:06.588Z,10.10
2018-04-27T12:04:34.652Z,12.63
2018-04-27T12:07:02.798Z,12.23
2018-04-27T12:09:31.583Z,10.77
2018-04-27T12:12:00.405Z,12.30
2018-04-27T12:14:28.436Z,11.97
2018-04-27T12:16:56.592Z,11.93
2018-04-27T12:19:24.628Z,12.90
2018-04-27T12:21:52.582Z,11.17
2018-04-27T12:24:20.548Z,13.20
2018-04-27T12:26:48.476Z,12.63
2018-04-27T12:29:16.406Z,12.33
2018-04-27T12:31:44.449Z,11.80
2018-04-27T12:34:12.528Z,12.90
2018-04-27T12:36:40.566Z,11.63
2018-04-27T12:39:09.423Z,12.13
2018-04-27T12:41:37.525Z,13.67
2018-04-27T12:44:05.556Z,11.80
2018-04-27T12:46:33.555Z,11.87
2018-04-27T12:49:01.594Z,11.00
2018-04-27T12:51:29.707Z,10.60
2018-04-27T12:53:57.743Z,11.00
2018-04-27T12:56:25.776Z,10.33
2018-04-27T12:58:53.693Z,9.70
2018-04-27T13:01:21.708Z,9.60
2018-04-27T13:03:50.446Z,10.70
2018-04-27T13:06:18.548Z,9.20
2018-04-27T13:08:47.335Z,9.30
2018-04-27T13:11:15.436Z,9.20
2018-04-27T13:13:43.577Z,10.80
2018-04-27T13:16:11.570Z,9.47
2018-04-27T13:18:39.559Z,9.77
2018-04-27T13:21:07.516Z,9.47
2018-04-27T13:23:35.420Z,9.57
2018-04-27T13:26:03.454Z,9.63
2018-04-27T13:28:31.368Z,10.20
2018-04-27T13:31:00.160Z,11.47
2018-04-27T13:33:28.075Z,8.63
2018-04-27T13:35:56.072Z,9.50
2018-04-27T13:38:24.079Z,11.77
2018-04-27T13:40:52.104Z,9.10
2018-04-27T13:43:20.063Z,8.97
2018-04-27T13:45:48.090Z,10.67
2018-04-27T13:48:16.120Z,9.90
2018-04-27T13:50:44.248Z,9.43
2018-04-27T13:53:13.052Z,10.23
2018-04-27T13:55:41.074Z,10.13
2018-04-27T13:58:09.123Z,9.50
2018-04-27T14:00:37.217Z,12.27
2018-04-27T14:03:05.311Z,8.27
2018-04-27T14:05:33.390Z,9.10
2018-04-27T14:08:02.214Z,9.50
2018-04-27T14:10:30.293Z,9.00
2018-04-27T14:12:58.403Z,9.27
2018-04-27T14:15:26.493Z,8.10
2018-04-27T14:17:55.327Z,9.90
2018-04-27T14:20:23.434Z,7.63
2018-04-27T14:22:51.409Z,9.47
2018-04-27T14:25:19.313Z,9.87
2018-04-27T14:27:47.282Z,9.50
2018-04-27T14:30:15.326Z,10.50
2018-04-27T14:32:44.016Z,9.50
2018-04-27T14:35:12.807Z,11.03
2018-04-27T14:37:41.571Z,10.70
2018-04-27T14:40:09.527Z,9.80
2018-04-27T14:42:37.653Z,8.73
2018-04-27T14:45:05.576Z,10.57
2018-04-27T14:47:33.504Z,10.67
2018-04-27T14:50:01.480Z,10.00
2018-04-27T14:52:29.476Z,8.97
2018-04-27T14:54:57.580Z,9.97
2018-04-27T14:57:26.356Z,9.47
2018-04-27T14:59:54.478Z,9.13
2018-04-27T15:02:22.564Z,8.90
2018-04-27T15:04:50.492Z,10.13
2018-04-27T15:07:19.192Z,8.83
2018-04-27T15:09:47.183Z,9.40
2018-04-27T15:12:15.266Z,9.03
2018-04-27T15:14:43.265Z,8.27
2018-04-27T15:17:11.233Z,8.60
2018-04-27T15:19:39.187Z,10.33
2018-04-27T15:22:07.104Z,8.93
2018-04-27T15:24:35.129Z,8.20
2018-04-27T15:27:03.142Z,8.67
2018-04-27T15:29:31.180Z,7.33
2018-04-27T15:31:59.122Z,7.50
2018-04-27T15:34:27.880Z,8.57
2018-04-27T15:36:55.901Z,6.37
2018-04-27T15:39:24.032Z,7.40
2018-04-27T15:41:52.050Z,6.40
2018-04-27T15:44:20.199Z,7.23
2018-04-27T15:46:48.228Z,7.70
2018-04-27T15:49:16.360Z,7.00
2018-04-27T15:51:44.352Z,6.60
2018-04-27T15:54:13.124Z,6.33
2018-04-27T15:56:41.162Z,7.50
2018-04-27T15:59:09.170Z,6.83
2018-04-27T16:01:38.117Z,6.53
2018-04-27T16:04:06.125Z,6.70
2018-04-27T16:06:34.920Z,6.17
2018-04-27T16:09:03.775Z,7.60
2018-04-27T16:11:31.880Z,7.70
2018-04-27T16:14:00.764Z,6.37
2018-04-27T16:16:28.877Z,7.80
2018-04-27T16:18:58.772Z,8.30
2018-04-27T16:21:27.613Z,6.97
2018-04-27T16:23:55.628Z,5.53
2018-04-27T16:26:29.373Z,8.50
2018-04-27T16:28:57.426Z,6.53
2018-04-27T16:31:25.473Z,6.20
2018-04-27T16:33:54.243Z,5.63
2018-04-27T16:36:22.283Z,6.27
2018-04-27T16:38:50.347Z,7.00
2018-04-27T16:41:18.401Z,6.93
2018-04-27T16:43:46.451Z,6.30
2018-04-27T16:46:15.368Z,5.87
2018-04-27T16:48:43.384Z,6.37
2018-04-27T16:51:11.352Z,5.07
2018-04-27T16:53:39.384Z,5.63
2018-04-27T16:56:07.449Z,6.27
2018-04-27T16:58:43.213Z,6.40
2018-04-27T17:01:11.210Z,6.00
2018-04-27T17:03:39.368Z,6.00
2018-04-27T17:06:07.383Z,6.53
2018-04-27T17:08:35.455Z,6.13
2018-04-27T17:11:04.229Z,6.07
2018-04-27T17:13:33.120Z,6.07
2018-04-27T17:16:01.120Z,5.97
2018-04-27T17:18:29.211Z,6.20
2018-04-27T17:20:57.315Z,6.30
2018-04-27T17:23:25.343Z,6.27
2018-04-27T17:25:53.436Z,5.67
2018-04-27T17:28:21.486Z,5.23
2018-04-27T17:30:49.531Z,5.80
2018-04-27T17:33:18.308Z,6.00
2018-04-27T17:35:47.072Z,5.63
2018-04-27T17:38:15.108Z,5.00
2018-04-27T17:40:43.175Z,5.40
2018-04-27T17:43:11.264Z,5.50
2018-04-27T17:51:26.349Z,5.63
2018-04-27T17:53:55.080Z,7.77
2018-04-27T17:56:23.982Z,5.63
2018-04-27T17:58:52.258Z,5.90
2018-04-27T18:01:20.384Z,5.13
2018-04-27T18:03:48.593Z,5.57
2018-04-27T18:06:18.417Z,5.60
2018-04-27T18:08:46.693Z,5.90
2018-04-27T18:11:14.958Z,5.53
2018-04-27T18:13:43.135Z,5.20
2018-04-27T18:16:11.521Z,8.40
2018-04-27T18:18:39.900Z,7.27
2018-04-27T18:21:08.278Z,6.00
2018-04-27T18:23:36.443Z,6.33
2018-04-27T18:26:04.614Z,5.80
2018-04-27T18:28:33.005Z,6.50
2018-04-27T18:31:01.383Z,4.40
2018-04-27T18:33:29.545Z,6.00
2018-04-27T18:35:58.446Z,6.70
2018-04-27T18:38:26.712Z,4.80
2018-04-27T19:21:19.935Z,6.50
2018-04-27T19:23:48.223Z,4.63
2018-04-27T19:26:16.292Z,5.40
2018-04-27T19:28:44.572Z,5.20
2018-04-27T19:31:12.630Z,5.40
2018-04-27T19:33:42.549Z,6.30
2018-04-27T19:36:10.931Z,4.90
2018-04-27T19:38:38.996Z,6.10
2018-04-27T19:41:08.063Z,4.70
2018-04-27T19:43:36.161Z,5.37
2018-04-27T19:46:05.882Z,5.90
2018-04-27T19:48:33.950Z,6.67
2018-04-27T19:51:02.017Z,5.60
2018-04-27T19:53:31.657Z,7.60
2018-04-27T19:55:59.910Z,5.77
2018-04-27T19:58:27.968Z,5.17
2018-04-27T20:01:04.932Z,5.50
2018-04-27T20:03:44.960Z,5.40
2018-04-27T20:06:17.207Z,5.27
2018-04-27T20:08:53.645Z,6.40
2018-04-27T20:11:21.757Z,5.80
2018-04-27T20:13:49.995Z,4.87
2018-04-27T20:16:29.720Z,6.63
2018-04-27T20:18:57.914Z,5.40
2018-04-27T20:21:26.803Z,4.90
2018-04-27T20:23:54.870Z,5.77
2018-04-27T20:26:22.939Z,6.13
2018-04-27T20:28:51.225Z,5.83
2018-04-27T20:31:20.103Z,5.53
2018-04-27T20:33:48.997Z,5.03
2018-04-27T20:36:17.782Z,6.10
2018-04-27T20:38:46.674Z,6.27
2018-04-27T20:41:16.393Z,5.63
2018-04-27T20:43:44.463Z,5.50
2018-04-27T20:46:12.529Z,6.57
2018-04-27T20:48:40.600Z,6.20
2018-04-27T20:51:21.040Z,6.50
2018-04-27T20:53:52.108Z,7.07
2018-04-27T20:56:20.244Z,6.00
2018-04-27T20:58:48.456Z,5.53
2018-04-27T21:01:16.515Z,6.27
2018-04-27T21:03:45.622Z,6.13
2018-04-27T21:06:13.790Z,6.27
2018-04-27T21:08:41.856Z,6.70
2018-04-27T21:11:14.645Z,6.17
2018-04-27T21:13:43.533Z,6.20
2018-04-27T21:16:11.601Z,6.97
2018-04-27T21:18:40.392Z,5.90
2018-04-27T21:21:09.283Z,6.17
2018-04-27T21:23:38.067Z,6.77
2018-04-27T21:26:06.254Z,7.60
2018-04-27T21:28:36.052Z,6.93
2018-04-27T21:31:04.946Z,8.40
2018-04-27T21:33:58.587Z,7.10
2018-04-27T21:36:30.476Z,7.87
2018-04-27T21:39:16.158Z,8.07
2018-04-27T21:41:58.476Z,7.73
2018-04-27T21:44:28.380Z,8.00
2018-04-27T21:50:16.755Z,6.50
2018-04-27T21:52:44.819Z,8.10
2018-04-27T21:55:12.997Z,7.97
2018-04-27T21:57:56.928Z,7.97
2018-04-27T22:00:26.032Z,9.70
2018-04-27T22:06:17.786Z,9.00
2018-04-27T22:08:46.138Z,8.30
2018-04-27T22:11:43.848Z,9.53
2018-04-27T22:14:14.453Z,9.00
2018-04-27T22:16:43.340Z,9.47
2018-04-27T22:19:13.364Z,8.80
2018-04-27T22:21:42.252Z,8.90
2018-04-27T22:24:12.846Z,10.53
2018-04-27T22:26:40.950Z,9.93
2018-04-27T22:29:22.856Z,9.47
2018-04-27T22:31:51.133Z,9.63
2018-04-27T22:34:26.268Z,9.20
2018-04-27T22:36:54.295Z,10.23
2018-04-27T22:42:22.421Z,8.87
2018-04-27T22:45:08.001Z,9.43
2018-04-27T22:50:35.687Z,10.33
2018-04-27T22:53:03.762Z,10.60
2018-04-27T22:55:31.832Z,10.23
2018-04-27T22:58:03.805Z,10.77
2018-04-27T23:00:33.808Z,11.90
2018-04-27T23:03:01.883Z,13.30
2018-04-27T23:05:35.765Z,13.20
2018-04-27T23:08:04.681Z,11.33
2018-04-27T23:10:45.552Z,12.30
2018-04-27T23:13:19.460Z,13.30
2018-04-27T23:15:47.531Z,12.17
2018-04-27T23:18:17.446Z,12.60
2018-04-27T23:20:46.439Z,13.00
2018-04-27T23:23:14.510Z,12.00
2018-04-27T23:25:56.099Z,13.20
2018-04-27T23:28:24.165Z,12.47
2018-04-27T23:30:52.243Z,13.90
2018-04-27T23:33:20.308Z,13.00
2018-04-27T23:36:10.265Z,13.20
2018-04-27T23:38:38.363Z,14.87
2018-04-27T23:41:06.438Z,12.70
2018-04-27T23:43:35.225Z,13.07
2018-04-27T23:46:03.298Z,14.07
2018-04-27T23:48:31.366Z,14.17
2018-04-27T23:51:00.364Z,14.83
2018-04-27T23:53:29.249Z,13.10
2018-04-27T23:55:57.426Z,14.43
2018-04-27T23:58:27.236Z,14.97
